Time;durP1;ratioP1;P1;durP2;ratioP2;P2;SDS_P1;SDS_P2;PMS_P1;PMS_P2;Temp;Humidity;BMP_temperature;BMP_pressure;BME280_temperature;BME280_humidity;BME280_pressure;Samples;Min_cycle;Max_cycle;Signal;HPM_P1;HPM_P2
2022/03/17 00:02:09;;;;;;;10.50;8.50;;;;;;;8.98;84.33;99782.56;8251436;28;20780;-71
2022/03/17 00:06:11;;;;;;;11.63;8.83;;;;;;;8.94;84.99;99791.13;8252176;28;20337;-71
2022/03/17 00:10:15;;;;;;;10.43;8.65;;;;;;;8.88;84.60;99797.13;8252753;28;20435;-71
2022/03/17 00:14:16;;;;;;;12.57;9.13;;;;;;;8.83;85.08;99806.59;8248464;28;20057;-71
2022/03/17 00:18:18;;;;;;;9.75;8.20;;;;;;;8.78;85.28;99796.16;8279169;28;20061;-71
2022/03/17 00:22:19;;;;;;;9.98;8.25;;;;;;;8.76;85.61;99799.59;8290567;28;20200;-71
2022/03/17 00:26:21;;;;;;;11.13;9.00;;;;;;;8.68;85.84;99803.84;8306473;28;20053;-71
2022/03/17 00:30:22;;;;;;;11.75;7.82;;;;;;;8.59;86.87;99791.66;8293192;28;20064;-71
2022/03/17 00:34:24;;;;;;;8.38;7.45;;;;;;;8.53;87.19;99801.97;8603524;23;20150;-71
2022/03/17 00:38:25;;;;;;;9.73;8.38;;;;;;;8.47;87.11;99796.75;8243376;28;20059;-71
2022/03/17 00:42:27;;;;;;;8.57;7.03;;;;;;;8.43;87.52;99795.81;8244888;28;20784;-71
2022/03/17 00:46:28;;;;;;;9.18;6.53;;;;;;;8.38;87.87;99796.63;8245427;28;20487;-71
2022/03/17 00:50:31;;;;;;;10.27;7.65;;;;;;;8.33;87.61;99796.56;8221391;28;20199;-71
2022/03/17 00:54:32;;;;;;;7.70;7.00;;;;;;;8.31;88.46;99808.59;8235764;28;20046;-71
2022/03/17 00:58:33;;;;;;;10.70;8.03;;;;;;;8.27;88.18;99803.38;8243805;28;20056;-71
2022/03/17 01:02:35;;;;;;;9.67;7.37;;;;;;;8.27;89.01;99813.72;8238471;28;20070;-71
2022/03/17 01:06:37;;;;;;;12.00;8.23;;;;;;;8.23;88.91;99807.63;8240713;28;20578;-71
2022/03/17 01:10:39;;;;;;;9.47;8.33;;;;;;;8.22;88.92;99810.19;8240272;28;20051;-71
2022/03/17 01:14:40;;;;;;;11.53;8.87;;;;;;;8.19;89.36;99811.91;8239859;28;20470;-71
2022/03/17 01:18:42;;;;;;;11.00;7.80;;;;;;;8.14;89.31;99803.22;8237372;28;20083;-71
2022/03/17 01:22:44;;;;;;;12.52;7.15;;;;;;;8.12;89.69;99809.25;8242351;28;20050;-71
2022/03/17 01:26:46;;;;;;;11.20;7.07;;;;;;;8.08;89.80;99810.06;8238220;28;20054;-71
2022/03/17 01:30:51;;;;;;;9.57;7.18;;;;;;;8.06;89.51;99812.59;8239823;28;20128;-71
2022/03/17 01:34:52;;;;;;;8.63;6.30;;;;;;;8.04;89.95;99810.84;8284630;28;20055;-71
2022/03/17 01:38:54;;;;;;;7.77;6.83;;;;;;;8.01;89.77;99813.41;8308703;28;20049;-71
2022/03/17 01:42:55;;;;;;;9.80;6.70;;;;;;;7.97;89.70;99807.31;8305644;28;20053;-71
2022/03/17 01:51:17;;;;;;;9.00;7.07;;;;;;;7.92;90.47;99811.59;8302624;28;20518;-71
2022/03/17 01:55:19;;;;;;;8.90;6.90;;;;;;;7.88;90.56;99818.41;8300804;28;20141;-71
2022/03/17 01:59:22;;;;;;;10.02;6.53;;;;;;;7.86;90.31;99817.53;8306540;28;20076;-71
2022/03/17 02:03:27;;;;;;;;;;;;;;;7.85;90.30;99815.78;8291900;28;20049;-72
2022/03/17 02:07:28;;;;;;;7.40;4.83;;;;;;;7.84;90.32;99820.94;8296182;28;21580;-71
2022/03/17 02:15:54;;;;;;;6.03;5.10;;;;;;;7.79;90.16;99826.06;8296685;28;20436;-71
2022/03/17 02:19:58;;;;;;;8.43;5.43;;;;;;;7.74;90.47;99830.31;8305207;28;20164;-71
2022/03/17 02:28:20;;;;;;;7.67;5.13;;;;;;;7.69;90.49;99826.75;8299107;28;20785;-71
2022/03/17 02:32:21;;;;;;;8.57;4.72;;;;;;;7.67;90.55;99825.00;8281682;28;20157;-71
2022/03/17 02:36:24;;;;;;;9.03;5.73;;;;;;;7.66;90.67;99829.31;8288159;28;20063;-71
2022/03/17 02:40:25;;;;;;;7.10;4.72;;;;;;;7.61;90.43;99836.13;8304125;28;20042;-71
2022/03/17 02:44:27;;;;;;;8.83;5.63;;;;;;;7.62;90.69;99844.75;8300993;28;20064;-71
2022/03/17 02:48:28;;;;;;;8.67;4.70;;;;;;;7.64;90.56;99846.50;8281346;28;20054;-71
2022/03/17 02:52:30;;;;;;;11.27;6.00;;;;;;;7.61;90.65;99845.59;8300668;28;20049;-72
2022/03/17 02:56:33;;;;;;;7.07;5.37;;;;;;;7.59;90.44;99850.75;8278316;28;20153;-71
2022/03/17 03:00:35;;;;;;;8.57;5.23;;;;;;;7.59;90.87;99848.16;8298000;28;20132;-71
2022/03/17 03:04:37;;;;;;;8.13;5.77;;;;;;;7.56;90.95;99855.88;8301602;28;20054;-71
2022/03/17 03:08:39;;;;;;;8.53;5.03;;;;;;;7.55;91.29;99854.13;8304195;28;20133;-71
2022/03/17 03:12:41;;;;;;;10.00;5.40;;;;;;;7.54;91.27;99848.09;8306747;28;20393;-71
2022/03/17 03:16:42;;;;;;;7.78;5.05;;;;;;;7.51;91.12;99845.44;8303370;28;20064;-71
2022/03/17 03:20:44;;;;;;;7.75;5.25;;;;;;;7.51;91.45;99857.50;8303222;28;20056;-71
2022/03/17 03:24:46;;;;;;;8.63;4.35;;;;;;;7.50;91.84;99861.78;8307728;28;20052;-71
2022/03/17 03:28:48;;;;;;;6.37;4.57;;;;;;;7.54;91.65;99873.03;8304903;28;20060;-71
2022/03/17 03:32:50;;;;;;;5.18;4.47;;;;;;;7.54;91.57;99876.53;8299588;28;20295;-71
2022/03/17 03:41:12;;;;;;;9.00;5.10;;;;;;;7.52;91.89;99879.91;8304613;28;20958;-71
2022/03/17 03:45:14;;;;;;;8.00;5.30;;;;;;;7.49;91.66;99885.03;8296553;28;20056;-71
2022/03/17 03:49:16;;;;;;;7.37;5.13;;;;;;;7.50;91.62;99897.97;8302270;28;20521;-71
2022/03/17 03:53:17;;;;;;;5.53;4.43;;;;;;;7.48;91.58;99901.38;8302962;28;20398;-71
2022/03/17 03:57:19;;;;;;;6.50;4.73;;;;;;;7.49;91.67;99903.13;8302006;28;20740;-71
2022/03/17 04:01:20;;;;;;;5.47;4.47;;;;;;;7.48;91.55;99897.06;8296329;28;20140;-71
2022/03/17 04:05:27;;;;;;;6.88;4.65;;;;;;;7.46;91.77;99908.25;8297282;28;20138;-72
2022/03/17 04:09:31;;;;;;;5.73;4.33;;;;;;;7.43;91.67;99903.91;8299015;28;20914;-71
2022/03/17 04:13:32;;;;;;;8.20;4.50;;;;;;;7.44;91.74;99909.94;8292332;28;20128;-71
2022/03/17 04:17:33;;;;;;;5.13;4.60;;;;;;;7.43;91.58;99906.47;8291311;28;20519;-71
2022/03/17 04:21:35;;;;;;;4.67;4.27;;;;;;;7.43;91.52;99913.38;8296430;28;20402;-71
2022/03/17 04:25:36;;;;;;;5.43;4.68;;;;;;;7.43;91.58;99914.22;8299889;28;20056;-71
2022/03/17 04:29:38;;;;;;;6.77;4.83;;;;;;;7.38;91.88;99917.59;8298161;28;20045;-71
2022/03/17 04:33:39;;;;;;;5.70;4.80;;;;;;;7.38;91.82;99927.91;8296873;28;20137;-71
2022/03/17 04:37:41;;;;;;;5.63;5.00;;;;;;;7.38;91.97;99941.72;8293920;28;20056;-71
2022/03/17 04:41:42;;;;;;;5.70;4.77;;;;;;;7.32;91.90;99945.88;8300199;28;20042;-71
2022/03/17 04:45:45;;;;;;;11.00;5.17;;;;;;;7.32;92.22;99948.47;8294344;28;20066;-72
2022/03/17 04:49:47;;;;;;;5.10;4.50;;;;;;;7.31;92.59;99949.31;8299866;28;20042;-71
2022/03/17 04:53:49;;;;;;;;;;;;;;;7.31;92.34;99950.19;8295358;28;20129;-71
2022/03/17 04:57:51;;;;;;;5.33;4.20;;;;;;;7.27;92.40;99957.00;8289982;28;19939;-71
2022/03/17 05:01:52;;;;;;;;;;;;;;;7.27;92.80;99969.91;8279974;28;20058;-71
2022/03/17 05:05:55;;;;;;;6.33;4.40;;;;;;;7.26;92.60;99972.47;8288577;28;20252;-71
2022/03/17 05:09:57;;;;;;;5.03;4.47;;;;;;;7.23;92.80;99977.59;8297085;28;20045;-71
2022/03/17 05:13:58;;;;;;;5.50;5.00;;;;;;;7.22;92.83;99978.44;8290272;28;20060;-71
2022/03/17 05:18:00;;;;;;;5.87;5.03;;;;;;;7.22;92.36;99973.28;8282941;28;20101;-71
2022/03/17 05:22:02;;;;;;;6.43;5.35;;;;;;;7.15;92.90;99980.00;8282404;28;20046;-71
2022/03/17 05:26:04;;;;;;;7.00;5.10;;;;;;;7.17;92.62;99980.91;8290010;28;20053;-71
2022/03/17 05:30:06;;;;;;;7.03;5.80;;;;;;;7.13;92.31;99992.03;8284542;28;20425;-72
2022/03/17 05:34:07;;;;;;;6.72;5.85;;;;;;;7.13;92.91;99996.31;8291199;28;20759;-71
2022/03/17 05:38:09;;;;;;;9.33;5.83;;;;;;;7.13;92.96;100015.28;8299948;28;20149;-72
2022/03/17 05:42:10;;;;;;;11.37;6.50;;;;;;;7.12;92.49;100016.13;8293208;28;20413;-71
2022/03/17 05:46:12;;;;;;;14.60;7.90;;;;;;;7.10;92.73;100017.81;8287006;28;20300;-72
2022/03/17 05:50:15;;;;;;;12.43;8.20;;;;;;;7.07;92.49;100030.66;8287939;28;20075;-72
2022/03/17 05:54:16;;;;;;;11.33;8.17;;;;;;;7.04;92.96;100035.75;8286930;28;20141;-72
2022/03/17 05:58:18;;;;;;;10.03;7.97;;;;;;;7.07;93.17;100040.13;8291630;28;20049;-72
2022/03/17 06:02:19;;;;;;;9.97;7.73;;;;;;;7.05;93.12;100049.53;8282891;28;20066;-71
2022/03/17 06:06:21;;;;;;;12.40;7.80;;;;;;;7.07;93.42;100061.63;8294326;28;20053;-72
2022/03/17 06:10:26;;;;;;;11.77;8.17;;;;;;;7.06;93.60;100070.22;8296943;28;20111;-72
2022/03/17 06:14:28;;;;;;;11.03;7.17;;;;;;;7.10;93.59;100073.75;8292278;28;20070;-72
2022/03/17 06:18:29;;;;;;;10.03;7.57;;;;;;;7.14;93.91;100079.00;8290404;28;20104;-72
2022/03/17 06:22:31;;;;;;;8.67;6.67;;;;;;;7.18;93.85;100082.50;8283606;28;20678;-72
2022/03/17 06:26:32;;;;;;;9.27;7.63;;;;;;;7.22;93.87;100098.13;8291881;28;20136;-72
2022/03/17 06:30:37;;;;;;;11.30;7.57;;;;;;;7.26;93.96;100091.28;8281745;28;20168;-72
2022/03/17 06:34:40;;;;;;;10.93;7.70;;;;;;;7.32;93.67;100101.72;8294997;28;20153;-71
2022/03/17 06:38:41;;;;;;;10.60;7.70;;;;;;;7.37;93.65;100105.31;8297735;28;20137;-72
2022/03/17 06:42:44;;;;;;;12.03;8.40;;;;;;;7.41;93.61;100112.28;8284083;28;20060;-71
2022/03/17 06:46:46;;;;;;;9.20;7.63;;;;;;;7.46;93.60;100118.38;8275002;28;20092;-71
2022/03/17 06:50:47;;;;;;;8.47;7.40;;;;;;;7.49;93.72;100123.59;8293304;28;20519;-71
2022/03/17 06:54:50;;;;;;;10.73;7.60;;;;;;;7.55;93.52;100128.06;8288443;28;20042;-71
2022/03/17 06:58:51;;;;;;;;;;;;;;;7.58;93.48;100123.81;8291436;28;20044;-71
2022/03/17 07:02:53;;;;;;;8.30;6.43;;;;;;;7.64;93.28;100141.13;8287822;28;20226;-71
2022/03/17 07:06:55;;;;;;;7.37;6.63;;;;;;;7.72;93.38;100141.25;8285672;28;20291;-72
2022/03/17 07:10:57;;;;;;;9.20;7.83;;;;;;;7.78;93.65;100131.94;8288324;28;20057;-71
2022/03/17 07:14:58;;;;;;;11.70;7.67;;;;;;;7.88;93.07;100130.38;8285088;28;20053;-72
2022/03/17 07:19:00;;;;;;;12.33;8.27;;;;;;;7.98;93.05;100134.88;8282917;28;20049;-71
2022/03/17 07:23:01;;;;;;;10.50;8.30;;;;;;;8.02;92.46;100144.44;8292523;28;20053;-71
2022/03/17 07:27:03;;;;;;;12.77;9.37;;;;;;;8.12;92.07;100151.53;8302784;28;20060;-71
2022/03/17 07:31:04;;;;;;;11.07;8.83;;;;;;;8.22;91.67;100157.72;8285990;28;20061;-72
2022/03/17 07:35:07;;;;;;;10.43;8.17;;;;;;;8.33;91.90;100163.06;8285036;28;20077;-72
2022/03/17 07:39:08;;;;;;;10.45;8.13;;;;;;;8.42;92.02;100169.28;8291213;28;20060;-71
2022/03/17 07:43:10;;;;;;;10.43;8.43;;;;;;;8.53;91.75;100179.84;8288685;28;20077;-72
2022/03/17 07:47:12;;;;;;;13.38;9.60;;;;;;;8.60;90.81;100197.19;8293051;28;20053;-71
2022/03/17 07:51:14;;;;;;;11.90;8.93;;;;;;;8.65;90.61;100205.94;8298392;28;20042;-71
2022/03/17 07:55:17;;;;;;;;;;;;;;;8.68;90.75;100211.16;8280291;28;20050;-71
2022/03/17 07:59:19;;;;;;;9.60;7.78;;;;;;;8.72;90.40;100210.34;8300808;28;19936;-71
2022/03/17 08:03:21;;;;;;;11.05;9.05;;;;;;;8.80;90.39;100218.25;8300850;28;20061;-72
2022/03/17 08:07:23;;;;;;;10.48;8.32;;;;;;;8.87;90.38;100230.44;8283468;28;20049;-72
2022/03/17 08:11:24;;;;;;;15.23;9.80;;;;;;;8.93;90.14;100233.13;8288319;28;20544;-72
2022/03/17 08:15:26;;;;;;;9.83;8.57;;;;;;;8.98;89.37;100228.91;8282230;28;20063;-72
2022/03/17 08:19:28;;;;;;;11.85;9.52;;;;;;;9.04;89.31;100238.47;8284305;28;20089;-72
2022/03/17 08:23:29;;;;;;;12.27;9.93;;;;;;;9.09;88.88;100237.69;8291596;28;20414;-73
2022/03/17 08:27:31;;;;;;;12.80;9.27;;;;;;;9.10;88.80;100243.75;8285716;28;20049;-73
2022/03/17 08:31:33;;;;;;;12.67;9.80;;;;;;;9.18;88.66;100239.56;8281080;28;20149;-72
2022/03/17 08:35:34;;;;;;;12.33;10.43;;;;;;;9.25;88.94;100250.88;8265582;28;20061;-72
2022/03/17 08:39:36;;;;;;;12.63;9.85;;;;;;;9.30;88.37;100264.78;8250083;28;21011;-72
2022/03/17 08:43:37;;;;;;;12.63;9.63;;;;;;;9.35;88.25;100276.09;8255017;28;20392;-72
2022/03/17 08:52:00;;;;;;;15.32;11.05;;;;;;;9.39;88.44;100291.72;8263765;28;20046;-73
2022/03/17 08:56:03;;;;;;;12.02;10.02;;;;;;;9.43;88.40;100302.13;8246436;28;20061;-72
2022/03/17 09:00:06;;;;;;;16.33;11.57;;;;;;;9.41;87.24;100307.28;8251174;28;20046;-72
2022/03/17 09:04:14;;;;;;;14.40;11.38;;;;;;;9.41;87.27;100311.59;8262952;28;20128;-73
2022/03/17 09:08:15;;;;;;;20.55;13.23;;;;;;;9.44;87.32;100314.22;8251251;28;20129;-72
2022/03/17 09:12:18;;;;;;;16.00;11.90;;;;;;;9.45;87.43;100324.63;8236909;28;20053;-72
2022/03/17 09:16:20;;;;;;;;;;;;;;;9.50;87.28;100335.03;8247707;28;20058;-72
2022/03/17 09:20:21;;;;;;;19.85;11.70;;;;;;;9.52;88.16;100335.97;8255541;28;20389;-73
2022/03/17 09:24:23;;;;;;;15.50;12.50;;;;;;;9.55;88.30;100341.19;8250768;28;20050;-72
2022/03/17 09:28:27;;;;;;;18.13;12.02;;;;;;;9.59;87.88;100338.66;8254700;28;20482;-72
2022/03/17 09:32:29;;;;;;;18.73;12.80;;;;;;;9.63;88.37;100343.03;8239422;28;20043;-72
2022/03/17 09:36:30;;;;;;;17.88;11.90;;;;;;;9.70;88.00;100351.81;8275499;28;20061;-72
2022/03/17 09:40:34;;;;;;;14.95;11.43;;;;;;;9.73;87.77;100357.03;8275503;28;20060;-72
2022/03/17 09:44:36;;;;;;;15.93;11.63;;;;;;;9.77;87.43;100374.38;8283503;28;20062;-72
2022/03/17 09:48:38;;;;;;;14.20;10.82;;;;;;;9.83;87.36;100365.78;8287504;28;20106;-72
2022/03/17 09:52:41;;;;;;;13.38;9.23;;;;;;;9.86;86.41;100373.59;8281805;28;20050;-71
2022/03/17 09:56:43;;;;;;;11.82;9.32;;;;;;;9.90;86.06;100378.00;8295944;28;20056;-72
2022/03/17 10:00:47;;;;;;;10.13;8.30;;;;;;;9.94;84.94;100378.06;8286736;28;20076;-72
2022/03/17 10:04:49;;;;;;;13.60;9.35;;;;;;;10.02;84.44;100380.75;8290457;28;20096;-72
2022/03/17 10:08:54;;;;;;;9.73;8.43;;;;;;;10.07;84.29;100388.63;8263224;28;20060;-72
2022/03/17 10:13:14;;;;;;;9.43;8.25;;;;;;;10.12;84.38;100392.16;8288124;28;20045;-71
2022/03/17 10:17:34;;;;;;;12.38;8.52;;;;;;;10.20;83.90;100406.97;8275304;28;20859;-71
2022/03/17 10:21:37;;;;;;;10.13;8.52;;;;;;;10.23;83.95;100413.94;8290817;28;20050;-71
2022/03/17 10:25:38;;;;;;;13.13;7.97;;;;;;;10.23;83.01;100413.94;8292408;28;20060;-71
2022/03/17 10:29:40;;;;;;;10.68;8.07;;;;;;;10.26;82.52;100427.84;8294892;28;20052;-71
2022/03/17 10:33:42;;;;;;;10.68;7.55;;;;;;;10.26;81.58;100421.78;8274207;28;20146;-71
2022/03/17 10:37:43;;;;;;;11.80;7.93;;;;;;;10.29;81.90;100425.31;8265373;28;20060;-72
2022/03/17 10:41:48;;;;;;;11.57;7.90;;;;;;;10.34;81.68;100429.66;8262968;28;20046;-71
2022/03/17 10:46:20;;;;;;;11.40;7.85;;;;;;;10.38;81.01;100432.31;8242887;28;20073;-71
2022/03/17 10:50:22;;;;;;;14.50;8.00;;;;;;;10.44;80.73;100437.63;8261703;28;20556;-71
2022/03/17 10:54:24;;;;;;;10.18;6.63;;;;;;;10.47;80.49;100440.25;8263784;28;20081;-72
2022/03/17 10:58:26;;;;;;;9.48;7.60;;;;;;;10.50;80.69;100436.81;8261001;28;20108;-71
2022/03/17 11:02:27;;;;;;;8.45;6.70;;;;;;;10.52;80.53;100448.09;8245971;28;20490;-71
2022/03/17 11:06:29;;;;;;;9.23;8.32;;;;;;;10.56;80.85;100453.31;8246568;28;20052;-72
2022/03/17 11:10:31;;;;;;;9.33;7.30;;;;;;;10.57;80.99;100460.25;8252051;28;20080;-72
2022/03/17 11:14:33;;;;;;;10.83;8.50;;;;;;;10.57;81.10;100455.06;8248607;28;20061;-72
2022/03/17 11:18:38;;;;;;;10.02;7.93;;;;;;;10.54;80.57;100461.97;8239929;28;20149;-71
2022/03/17 11:22:39;;;;;;;10.10;8.13;;;;;;;10.50;80.61;100467.97;8244590;28;20666;-72
2022/03/17 11:26:44;;;;;;;9.10;7.20;;;;;;;10.42;80.05;100470.47;8243564;28;20522;-72
2022/03/17 11:30:49;;;;;;;10.07;6.38;;;;;;;10.41;80.21;100478.22;8242283;28;20326;-71
2022/03/17 11:35:25;;;;;;;9.40;7.20;;;;;;;10.39;79.41;100478.19;8222848;28;20156;-72
2022/03/17 11:39:26;;;;;;;8.43;7.40;;;;;;;10.41;79.31;100470.44;8245880;28;20165;-72
2022/03/17 11:43:42;;;;;;;8.00;6.57;;;;;;;10.42;78.79;100467.00;8246411;28;20058;-71
2022/03/17 11:47:53;;;;;;;9.23;6.93;;;;;;;10.43;78.14;100471.34;8237651;28;20137;-71
2022/03/17 11:52:02;;;;;;;7.10;6.25;;;;;;;10.49;77.87;100480.09;8246135;28;20438;-72
2022/03/17 11:56:05;;;;;;;10.88;6.97;;;;;;;10.54;77.87;100478.41;8252453;28;20045;-72
2022/03/17 12:00:07;;;;;;;;;;;;;;;10.53;77.00;100484.47;8258482;28;20130;-72
2022/03/17 12:04:30;;;;;;;7.88;6.25;;;;;;;10.53;77.02;100497.44;8255252;28;20319;-71
2022/03/17 12:08:41;;;;;;;9.00;6.50;;;;;;;10.50;77.04;100501.72;8258967;28;20089;-72
2022/03/17 12:12:46;;;;;;;7.80;6.30;;;;;;;10.50;77.37;100501.72;8257450;28;20056;-72
2022/03/17 12:16:55;;;;;;;7.75;6.63;;;;;;;10.48;76.97;100495.66;8257328;28;20054;-72
2022/03/17 12:20:57;;;;;;;8.50;6.38;;;;;;;10.46;76.85;100519.00;8259962;28;20054;-72
2022/03/17 12:25:00;;;;;;;9.40;6.82;;;;;;;10.45;76.66;100513.78;8261636;28;20062;-72
2022/03/17 12:29:04;;;;;;;8.23;6.65;;;;;;;10.40;76.01;100510.22;8260803;28;20117;-72
2022/03/17 12:33:06;;;;;;;8.73;7.40;;;;;;;10.36;76.11;100524.91;8252659;28;20452;-72
2022/03/17 12:37:08;;;;;;;8.30;6.65;;;;;;;10.29;75.65;100521.34;8281434;28;20066;-72
2022/03/17 12:41:14;;;;;;;8.38;6.55;;;;;;;10.27;76.43;100528.25;8293913;28;20068;-72
2022/03/17 12:45:18;;;;;;;6.72;5.97;;;;;;;10.25;76.33;100526.47;8285842;28;20045;-72
2022/03/17 12:49:21;;;;;;;8.40;6.82;;;;;;;10.20;75.58;100533.25;8294744;28;20072;-72
2022/03/17 12:53:26;;;;;;;7.22;5.97;;;;;;;10.19;75.76;100534.97;8290465;28;20132;-72
2022/03/17 12:57:29;;;;;;;7.63;6.03;;;;;;;10.22;75.51;100531.59;8297393;28;20050;-71
2022/03/17 13:01:30;;;;;;;9.82;6.03;;;;;;;10.17;75.08;100535.81;8285803;28;20058;-72
2022/03/17 13:09:53;;;;;;;8.57;6.15;;;;;;;10.22;74.62;100540.25;8285237;28;20050;-72
2022/03/17 13:18:16;;;;;;;6.07;4.63;;;;;;;10.24;73.30;100542.91;8288621;28;20069;-73
2022/03/17 13:22:29;;;;;;;5.65;4.57;;;;;;;10.29;73.09;100543.84;8293305;28;20077;-73
2022/03/17 13:26:30;;;;;;;5.60;5.03;;;;;;;10.36;72.90;100544.78;8280397;28;20063;-73
2022/03/17 13:30:43;;;;;;;5.03;4.28;;;;;;;10.38;72.67;100549.16;8294481;28;20105;-73
2022/03/17 13:34:44;;;;;;;5.38;4.20;;;;;;;10.42;71.78;100550.09;8277307;28;20072;-73
2022/03/17 13:38:46;;;;;;;4.20;3.80;;;;;;;10.47;71.42;100556.22;8288479;28;20057;-73
2022/03/17 13:43:06;;;;;;;4.40;3.73;;;;;;;10.54;71.78;100558.03;8291159;28;20665;-73
2022/03/17 13:47:15;;;;;;;3.70;3.40;;;;;;;10.61;71.42;100556.44;8293385;28;20522;-74
2022/03/17 13:51:25;;;;;;;5.45;3.22;;;;;;;10.66;70.24;100563.41;8296661;28;20064;-73
2022/03/17 13:55:34;;;;;;;4.13;3.38;;;;;;;10.72;70.37;100567.81;8288224;28;20162;-73
2022/03/17 13:59:35;;;;;;;3.63;3.25;;;;;;;10.75;70.02;100571.31;8289300;28;20540;-73
2022/03/17 14:03:38;;;;;;;3.30;3.05;;;;;;;10.81;70.17;100570.56;8282800;28;20062;-73
2022/03/17 14:07:40;;;;;;;2.72;2.53;;;;;;;10.83;68.14;100577.53;8295933;28;20050;-73
2022/03/17 14:11:42;;;;;;;3.13;2.80;;;;;;;10.83;69.02;100574.91;8299823;28;20518;-74
2022/03/17 14:15:44;;;;;;;2.95;2.72;;;;;;;10.85;68.93;100580.13;8297005;28;20073;-73
2022/03/17 14:19:45;;;;;;;3.50;2.42;;;;;;;10.82;67.57;100590.50;8298532;28;20486;-73
2022/03/17 14:28:07;;;;;;;2.75;2.55;;;;;;;10.74;65.50;100586.91;8298999;28;20072;-73
2022/03/17 14:32:09;;;;;;;3.15;2.85;;;;;;;10.74;66.29;100597.28;8289830;28;20061;-74
2022/03/17 14:36:13;;;;;;;4.32;2.63;;;;;;;10.77;65.57;100594.72;8300570;28;20065;-74
2022/03/17 14:40:14;;;;;;;3.50;2.33;;;;;;;10.76;64.98;100599.03;8293400;28;20054;-74
2022/03/17 14:44:16;;;;;;;3.00;2.80;;;;;;;10.75;65.03;100599.03;8295273;28;20531;-74
2022/03/17 14:48:17;;;;;;;2.00;1.85;;;;;;;10.72;64.51;100606.78;8290258;28;20080;-74
2022/03/17 14:52:19;;;;;;;3.25;2.08;;;;;;;10.71;65.85;100611.09;8298288;28;20077;-74
2022/03/17 14:56:24;;;;;;;2.42;2.30;;;;;;;10.66;64.10;100612.78;8297956;28;20060;-73
2022/03/17 15:00:25;;;;;;;2.92;2.15;;;;;;;10.68;64.69;100613.66;8290300;28;20855;-73
2022/03/17 15:04:29;;;;;;;2.65;2.40;;;;;;;10.66;64.63;100620.56;8301198;28;20053;-73
2022/03/17 15:08:30;;;;;;;2.47;2.28;;;;;;;10.68;65.39;100623.19;8288938;28;20061;-73
2022/03/17 15:12:32;;;;;;;2.17;1.98;;;;;;;10.69;65.15;100630.13;8301170;28;20132;-73
2022/03/17 15:16:33;;;;;;;1.92;1.80;;;;;;;10.70;63.31;100621.47;8294610;28;20053;-73
2022/03/17 15:20:36;;;;;;;;;;;;;;;10.73;63.19;100624.13;8293639;28;20226;-73
2022/03/17 15:24:37;;;;;;;1.75;1.58;;;;;;;10.75;62.23;100633.66;8294749;28;19925;-73
2022/03/17 15:32:58;;;;;;;1.50;1.40;;;;;;;10.91;63.10;100637.38;8289420;28;20080;-73
2022/03/17 15:37:01;;;;;;;1.60;1.50;;;;;;;10.98;62.37;100639.22;8296302;28;20144;-73
2022/03/17 15:41:04;;;;;;;2.28;2.08;;;;;;;11.04;62.53;100639.28;8293707;28;20061;-72
2022/03/17 15:45:05;;;;;;;1.92;1.20;;;;;;;11.12;61.94;100647.19;8293276;28;20141;-73
2022/03/17 15:49:07;;;;;;;1.08;1.00;;;;;;;11.11;61.61;100655.84;8271693;28;20063;-73
2022/03/17 15:53:09;;;;;;;1.02;0.93;;;;;;;11.11;61.26;100648.03;8283973;28;20065;-73
2022/03/17 15:57:11;;;;;;;1.38;1.17;;;;;;;11.06;61.06;100660.09;8281506;28;21773;-73
2022/03/17 16:01:15;;;;;;;1.00;0.98;;;;;;;10.98;60.12;100661.75;8283786;28;20061;-73
2022/03/17 16:05:18;;;;;;;1.48;1.08;;;;;;;10.96;61.13;100660.84;8287940;28;20557;-73
2022/03/17 16:14:28;;;;;;;2.08;0.88;;;;;;;10.90;60.59;100669.41;8293102;28;20168;-73
2022/03/17 16:18:01;;;;;;;1.63;0.90;;;;;;;10.84;60.38;100674.53;8294301;28;20172;-73
2022/03/17 16:22:03;;;;;;;3.37;0.87;;;;;;;10.82;59.83;100684.91;8292155;28;20369;-72
2022/03/17 16:26:05;;;;;;;2.07;0.90;;;;;;;10.75;59.89;100672.63;8294618;28;20053;-73
2022/03/17 16:30:07;;;;;;;1.05;0.90;;;;;;;10.71;59.89;100683.84;8291113;28;20077;-73
2022/03/17 16:34:08;;;;;;;1.98;1.35;;;;;;;10.65;60.32;100694.16;8288968;28;20066;-73
2022/03/17 16:38:14;;;;;;;0.80;0.80;;;;;;;10.55;60.56;100703.50;8298355;28;20136;-73
2022/03/17 16:42:16;;;;;;;1.17;0.80;;;;;;;10.47;59.55;100714.63;8293377;28;20056;-73
2022/03/17 16:46:18;;;;;;;2.00;1.00;;;;;;;10.35;59.18;100714.41;8274387;28;20548;-73
2022/03/17 16:50:22;;;;;;;;;;;;;;;10.26;59.86;100723.78;8298463;28;20096;-73
2022/03/17 16:54:23;;;;;;;0.80;0.80;;;;;;;10.18;59.97;100725.31;8291907;28;19980;-73
2022/03/17 16:58:25;;;;;;;1.75;1.00;;;;;;;10.06;60.58;100726.81;8289065;28;20069;-73
2022/03/17 17:02:26;;;;;;;2.55;1.20;;;;;;;9.98;61.55;100737.91;8279609;28;20061;-73
2022/03/17 17:06:29;;;;;;;2.17;1.40;;;;;;;9.89;62.49;100747.25;8295600;28;20053;-73
2022/03/17 17:10:31;;;;;;;5.28;2.08;;;;;;;9.78;62.43;100754.78;8291790;28;20298;-72
2022/03/17 17:14:33;;;;;;;;;;;;;;;9.68;62.41;100761.50;8279073;28;20753;-72
2022/03/17 17:18:35;;;;;;;1.65;1.30;;;;;;;9.57;61.62;100763.00;8297541;28;19936;-73
2022/03/17 17:31:17;;;;;;;3.28;2.58;;;;;;;9.22;63.32;100780.34;8283655;28;20064;-72
2022/03/17 17:35:19;;;;;;;5.50;2.78;;;;;;;9.08;64.04;100795.56;8285717;28;20064;-72
2022/03/17 17:39:20;;;;;;;1.48;1.35;;;;;;;8.99;63.61;100800.53;8281674;28;20050;-72
2022/03/17 17:43:22;;;;;;;2.77;2.27;;;;;;;8.94;64.43;100809.00;8281939;28;20072;-72
2022/03/17 17:47:24;;;;;;;7.80;3.60;;;;;;;8.90;65.07;100814.97;8276602;28;20179;-72
2022/03/17 17:51:25;;;;;;;7.38;4.35;;;;;;;8.81;65.49;100815.63;8292844;28;20053;-73
2022/03/17 17:55:27;;;;;;;5.07;2.90;;;;;;;8.73;65.28;100827.47;8294334;28;20057;-72
2022/03/17 17:59:29;;;;;;;3.90;2.63;;;;;;;8.69;65.57;100831.72;8294203;28;20053;-72
2022/03/17 18:03:30;;;;;;;8.32;3.45;;;;;;;8.61;65.59;100837.50;8272530;28;20060;-72
2022/03/17 18:07:32;;;;;;;5.50;2.97;;;;;;;8.51;65.69;100840.69;8275801;28;20810;-72
2022/03/17 18:11:33;;;;;;;4.77;3.10;;;;;;;8.41;65.87;100845.59;8277851;28;20553;-74
2022/03/17 18:15:40;;;;;;;7.07;2.70;;;;;;;8.36;65.14;100846.31;8285370;28;20062;-72
2022/03/17 18:19:41;;;;;;;5.23;2.83;;;;;;;8.33;65.13;100852.25;8292353;28;20143;-72
2022/03/17 18:23:43;;;;;;;5.13;2.80;;;;;;;8.31;64.73;100850.47;8293479;28;20510;-72
2022/03/17 18:27:46;;;;;;;6.33;3.00;;;;;;;8.30;65.51;100865.13;8296205;28;20165;-72
2022/03/17 18:31:48;;;;;;;;;;;;;;;8.25;64.89;100865.81;8289744;28;20137;-72
2022/03/17 18:35:50;;;;;;;3.75;2.50;;;;;;;8.22;65.48;100881.25;8295674;28;19940;-72
2022/03/17 18:39:51;;;;;;;4.93;2.90;;;;;;;8.16;65.42;100877.66;8290380;28;20054;-73
2022/03/17 18:43:54;;;;;;;4.53;2.93;;;;;;;8.09;66.09;100885.22;8295654;28;20059;-72
2022/03/17 18:47:59;;;;;;;3.00;2.70;;;;;;;8.03;66.38;100883.28;8287006;28;20054;-73
2022/03/17 18:52:00;;;;;;;6.60;3.10;;;;;;;8.02;66.01;100889.31;8295256;28;20045;-72
2022/03/17 18:56:02;;;;;;;4.93;3.13;;;;;;;7.99;65.89;100899.56;8295594;28;20440;-71
2022/03/17 19:00:05;;;;;;;8.17;3.40;;;;;;;7.98;66.75;100902.09;8289811;28;20053;-72
2022/03/17 19:04:07;;;;;;;5.83;3.10;;;;;;;7.94;67.22;100913.19;8275415;28;20061;-72
2022/03/17 19:08:08;;;;;;;6.27;3.23;;;;;;;7.91;67.01;100920.88;8295914;28;20064;-72
2022/03/17 19:12:10;;;;;;;7.27;3.33;;;;;;;7.85;67.22;100925.00;8293166;28;20156;-72
2022/03/17 19:16:12;;;;;;;4.22;3.38;;;;;;;7.83;67.06;100920.59;8290507;28;20072;-72
2022/03/17 19:20:17;;;;;;;4.17;3.20;;;;;;;7.85;67.27;100935.34;8293426;28;20801;-72
2022/03/17 19:24:19;;;;;;;5.30;2.90;;;;;;;7.85;67.66;100945.69;8282043;28;20144;-72
2022/03/17 19:28:20;;;;;;;2.93;2.67;;;;;;;7.87;67.36;100953.47;8296217;28;20776;-72
2022/03/17 19:32:23;;;;;;;3.50;2.83;;;;;;;7.88;67.17;100963.88;8289035;28;20062;-72
2022/03/17 19:36:25;;;;;;;3.25;2.83;;;;;;;7.91;67.53;100965.72;8294277;28;20092;-72
2022/03/17 19:40:26;;;;;;;4.85;3.10;;;;;;;7.91;67.72;100965.72;8293624;28;20164;-72
2022/03/17 19:44:28;;;;;;;2.93;2.70;;;;;;;7.93;67.74;100984.72;8296361;28;20055;-72
2022/03/17 19:48:30;;;;;;;3.63;2.93;;;;;;;7.96;66.70;100984.81;8292176;28;20169;-72
2022/03/17 19:52:32;;;;;;;4.65;3.67;;;;;;;8.00;66.60;100988.38;8290888;28;20125;-72